createdAt,value
2017-07-31T00:01:00.058Z,17.50
2017-07-31T00:03:27.577Z,17.60
2017-07-31T00:05:55.873Z,17.60
2017-07-31T00:08:23.384Z,17.60
2017-07-31T00:10:50.929Z,17.60
2017-07-31T00:13:18.437Z,17.70
2017-07-31T00:15:45.977Z,17.70
2017-07-31T00:18:14.274Z,17.70
2017-07-31T00:20:41.801Z,17.60
2017-07-31T00:23:09.320Z,17.70
2017-07-31T00:25:36.849Z,17.70
2017-07-31T00:28:04.372Z,17.70
2017-07-31T00:30:31.887Z,17.70
2017-07-31T00:32:59.421Z,17.70
2017-07-31T00:35:26.959Z,17.90
2017-07-31T00:37:55.263Z,17.90
2017-07-31T00:40:22.794Z,17.90
2017-07-31T00:42:51.092Z,17.90
2017-07-31T00:45:18.603Z,17.90
2017-07-31T00:47:46.153Z,18.00
2017-07-31T00:50:13.680Z,17.90
2017-07-31T00:52:41.200Z,17.90
2017-07-31T00:55:08.729Z,17.90
2017-07-31T00:57:36.265Z,17.90
2017-07-31T01:00:03.809Z,17.90
2017-07-31T01:02:31.326Z,17.80
2017-07-31T01:04:58.873Z,17.80
2017-07-31T01:07:26.388Z,17.80
2017-07-31T01:09:54.199Z,17.90
2017-07-31T01:12:22.514Z,17.90
2017-07-31T01:14:50.053Z,17.90
2017-07-31T01:17:18.337Z,17.80
2017-07-31T01:19:45.889Z,17.80
2017-07-31T01:22:14.166Z,17.70
2017-07-31T01:24:41.680Z,17.70
2017-07-31T01:27:09.217Z,17.70
2017-07-31T01:29:36.736Z,17.70
2017-07-31T01:32:04.296Z,17.70
2017-07-31T01:34:31.848Z,17.70
2017-07-31T01:36:59.417Z,17.60
2017-07-31T01:39:27.028Z,17.50
2017-07-31T01:41:54.585Z,17.40
2017-07-31T01:44:22.136Z,17.30
2017-07-31T01:46:49.703Z,17.30
2017-07-31T01:49:17.267Z,17.30
2017-07-31T01:51:44.840Z,17.30
2017-07-31T01:54:12.428Z,17.20
2017-07-31T01:56:40.037Z,17.20
2017-07-31T01:59:07.602Z,17.10
2017-07-31T02:01:35.158Z,17.10
2017-07-31T02:04:02.728Z,17.10
2017-07-31T02:06:30.283Z,17.00
2017-07-31T02:08:57.889Z,17.00
2017-07-31T02:11:25.452Z,16.90
2017-07-31T02:13:53.051Z,16.90
2017-07-31T02:16:20.591Z,16.80
2017-07-31T02:18:48.177Z,16.70
2017-07-31T02:21:15.748Z,16.70
2017-07-31T02:23:43.329Z,16.60
2017-07-31T02:26:10.917Z,16.40
2017-07-31T02:28:38.491Z,16.40
2017-07-31T02:31:06.130Z,16.40
2017-07-31T02:33:34.489Z,16.20
2017-07-31T02:36:02.076Z,16.20
2017-07-31T02:38:29.636Z,16.20
2017-07-31T02:40:57.213Z,16.10
2017-07-31T02:43:24.775Z,16.10
2017-07-31T02:45:52.374Z,16.10
2017-07-31T02:48:19.909Z,16.10
2017-07-31T02:50:47.483Z,16.10
2017-07-31T02:53:15.035Z,16.10
2017-07-31T02:55:42.613Z,16.10
2017-07-31T02:58:10.161Z,16.00
2017-07-31T03:00:37.769Z,16.10
2017-07-31T03:03:05.359Z,16.20
2017-07-31T03:05:32.941Z,16.20
2017-07-31T03:08:00.597Z,16.10
2017-07-31T03:10:28.174Z,16.10
2017-07-31T03:12:55.770Z,16.10
2017-07-31T03:15:23.308Z,16.10
2017-07-31T03:17:50.874Z,16.10
2017-07-31T03:20:18.450Z,16.10
2017-07-31T03:22:46.009Z,16.10
2017-07-31T03:25:13.586Z,16.10
2017-07-31T03:27:41.162Z,16.10
2017-07-31T03:30:09.549Z,16.00
2017-07-31T03:32:37.165Z,16.00
2017-07-31T03:35:04.724Z,16.00
2017-07-31T03:37:32.316Z,15.90
2017-07-31T03:39:59.895Z,15.90
2017-07-31T03:42:27.433Z,15.90
2017-07-31T03:44:55.010Z,15.90
2017-07-31T03:47:22.600Z,15.90
2017-07-31T03:49:50.169Z,15.90
2017-07-31T03:52:17.745Z,15.90
2017-07-31T03:54:45.317Z,15.90
2017-07-31T03:57:12.892Z,15.80
2017-07-31T03:59:40.468Z,15.80
2017-07-31T04:02:08.030Z,15.90
2017-07-31T04:04:35.597Z,15.90
2017-07-31T04:07:03.162Z,16.00
2017-07-31T04:09:30.704Z,16.10
2017-07-31T04:11:58.293Z,16.20
2017-07-31T04:14:25.845Z,16.30
2017-07-31T04:16:53.421Z,16.40
2017-07-31T04:19:20.970Z,16.50
2017-07-31T04:21:48.529Z,16.70
2017-07-31T04:24:16.056Z,16.80
2017-07-31T04:26:43.651Z,17.00
2017-07-31T04:29:11.209Z,17.20
2017-07-31T04:31:38.786Z,17.40
2017-07-31T04:34:06.344Z,17.60
2017-07-31T04:36:33.928Z,17.80
2017-07-31T04:39:01.487Z,17.90
2017-07-31T04:41:29.053Z,18.00
2017-07-31T04:43:56.632Z,18.20
2017-07-31T04:46:24.180Z,18.30
2017-07-31T04:48:51.762Z,18.30
2017-07-31T04:51:19.318Z,18.40
2017-07-31T04:53:46.894Z,18.50
2017-07-31T04:56:14.462Z,18.70
2017-07-31T04:58:42.027Z,19.00
2017-07-31T05:01:09.573Z,19.30
2017-07-31T05:03:37.133Z,20.30
2017-07-31T05:06:04.692Z,22.30
2017-07-31T05:08:32.287Z,24.50
2017-07-31T05:11:00.567Z,27.90
2017-07-31T05:13:28.872Z,29.60
2017-07-31T05:15:56.380Z,29.50
2017-07-31T05:18:23.888Z,29.50
2017-07-31T05:20:51.425Z,29.10
2017-07-31T05:23:19.705Z,29.00
2017-07-31T05:25:47.246Z,28.90
2017-07-31T05:28:15.531Z,30.20
2017-07-31T05:30:43.387Z,30.20
2017-07-31T05:33:11.677Z,32.70
2017-07-31T05:35:39.213Z,32.60
2017-07-31T05:38:06.749Z,34.60
2017-07-31T05:40:34.294Z,34.80
2017-07-31T05:43:01.809Z,35.80
2017-07-31T05:45:30.119Z,35.80
2017-07-31T05:47:57.627Z,35.70
2017-07-31T05:50:25.142Z,34.20
2017-07-31T05:52:52.681Z,34.10
2017-07-31T05:55:20.186Z,33.40
2017-07-31T05:57:47.724Z,33.50
2017-07-31T06:00:15.237Z,35.40
2017-07-31T06:02:42.777Z,35.90
2017-07-31T06:05:10.293Z,37.50
2017-07-31T06:07:37.829Z,37.50
2017-07-31T06:10:05.351Z,38.00
2017-07-31T06:12:32.877Z,39.10
2017-07-31T06:15:00.400Z,38.40
2017-07-31T06:17:27.916Z,38.20
2017-07-31T06:19:55.465Z,39.20
2017-07-31T06:22:22.985Z,38.50
2017-07-31T06:24:50.557Z,39.40
2017-07-31T06:27:18.460Z,38.80
2017-07-31T06:29:46.020Z,36.90
2017-07-31T06:32:13.533Z,36.80
2017-07-31T06:34:41.090Z,35.40
2017-07-31T06:37:08.610Z,34.10
2017-07-31T06:39:36.113Z,34.60
2017-07-31T06:42:03.663Z,35.50
2017-07-31T06:44:31.174Z,34.90
2017-07-31T06:46:58.709Z,35.50
2017-07-31T06:49:26.232Z,36.20
2017-07-31T06:51:53.777Z,37.00
2017-07-31T06:54:22.069Z,35.70
2017-07-31T06:56:49.601Z,35.60
2017-07-31T06:59:21.402Z,33.20
2017-07-31T07:01:48.940Z,33.10
2017-07-31T07:04:16.487Z,32.30
2017-07-31T07:06:44.048Z,32.30
2017-07-31T07:09:11.576Z,31.40
2017-07-31T07:11:39.079Z,30.70
2017-07-31T07:14:06.609Z,29.90
2017-07-31T07:16:34.895Z,29.50
2017-07-31T07:19:03.235Z,29.80
2017-07-31T07:21:30.768Z,29.80
2017-07-31T07:23:58.305Z,29.80
2017-07-31T07:26:25.812Z,29.50
2017-07-31T07:28:53.341Z,28.90
2017-07-31T07:31:20.849Z,28.80
2017-07-31T07:33:48.636Z,28.90
2017-07-31T07:36:16.918Z,29.60
2017-07-31T07:38:44.449Z,29.60
2017-07-31T07:41:11.959Z,29.90
2017-07-31T07:43:39.523Z,29.30
2017-07-31T07:46:07.061Z,29.00
2017-07-31T07:48:34.573Z,28.30
2017-07-31T07:51:02.105Z,28.10
2017-07-31T07:53:29.615Z,27.70
2017-07-31T07:55:57.917Z,27.70
2017-07-31T07:58:25.441Z,27.70
2017-07-31T08:00:53.753Z,28.10
2017-07-31T08:03:21.260Z,28.10
2017-07-31T08:05:48.781Z,28.60
2017-07-31T08:08:16.297Z,29.30
2017-07-31T08:10:44.600Z,29.00
2017-07-31T08:13:12.114Z,29.00
2017-07-31T08:15:39.652Z,29.30
2017-07-31T08:18:07.166Z,29.50
2017-07-31T08:20:34.680Z,29.60
2017-07-31T08:23:02.211Z,29.50
2017-07-31T08:25:29.728Z,29.10
2017-07-31T08:27:57.268Z,28.80
2017-07-31T08:30:24.787Z,28.90
2017-07-31T08:32:53.243Z,28.70
2017-07-31T08:35:20.767Z,29.10
2017-07-31T08:37:48.306Z,29.40
2017-07-31T08:40:15.821Z,30.00
2017-07-31T08:42:43.354Z,29.90
2017-07-31T08:45:10.872Z,30.00
2017-07-31T08:47:38.407Z,30.00
2017-07-31T08:50:05.931Z,30.10
2017-07-31T08:52:34.264Z,29.60
2017-07-31T08:55:01.764Z,29.50
2017-07-31T08:57:29.275Z,29.60
2017-07-31T08:59:56.817Z,30.00
2017-07-31T09:02:24.329Z,30.40
2017-07-31T09:04:51.859Z,30.80
2017-07-31T09:07:19.366Z,30.70
2017-07-31T09:09:47.666Z,31.20
2017-07-31T09:12:15.198Z,31.20
2017-07-31T09:14:42.767Z,31.50
2017-07-31T09:17:10.283Z,31.40
2017-07-31T09:19:37.813Z,30.40
2017-07-31T09:22:07.236Z,30.00
2017-07-31T09:24:34.773Z,30.10
2017-07-31T09:27:02.313Z,30.00
2017-07-31T09:29:29.871Z,29.90
2017-07-31T09:31:57.446Z,30.50
2017-07-31T09:34:24.977Z,30.70
2017-07-31T09:36:54.188Z,31.60
2017-07-31T09:39:21.719Z,31.60
2017-07-31T09:41:49.265Z,31.70
2017-07-31T09:44:16.782Z,32.00
2017-07-31T09:46:44.313Z,31.80
2017-07-31T09:49:11.829Z,32.20
2017-07-31T09:51:39.369Z,31.90
2017-07-31T09:54:06.897Z,31.50
2017-07-31T09:56:34.438Z,31.20
2017-07-31T09:59:02.710Z,31.30
2017-07-31T10:01:31.034Z,31.90
2017-07-31T10:03:58.554Z,31.80
2017-07-31T10:06:26.840Z,31.60
2017-07-31T10:08:54.373Z,31.60
2017-07-31T10:11:21.894Z,31.80
2017-07-31T10:13:49.467Z,31.90
2017-07-31T10:16:16.992Z,31.40
2017-07-31T10:18:44.559Z,31.90
2017-07-31T10:21:12.068Z,32.40
2017-07-31T10:23:39.625Z,33.00
2017-07-31T10:26:07.141Z,33.30
2017-07-31T10:28:34.680Z,33.50
2017-07-31T10:31:02.207Z,33.00
2017-07-31T10:33:29.755Z,33.00
2017-07-31T10:35:58.182Z,33.70
2017-07-31T10:38:25.699Z,34.00
2017-07-31T10:40:53.255Z,34.20
2017-07-31T10:43:20.781Z,34.40
2017-07-31T10:45:48.320Z,34.70
2017-07-31T10:48:15.842Z,34.50
2017-07-31T10:50:44.145Z,33.00
2017-07-31T10:53:11.652Z,33.00
2017-07-31T10:55:39.197Z,33.10
2017-07-31T10:58:06.714Z,33.50
2017-07-31T11:00:34.304Z,33.90
2017-07-31T11:03:01.808Z,33.90
2017-07-31T11:05:30.130Z,33.10
2017-07-31T11:07:57.638Z,33.10
2017-07-31T11:10:25.148Z,33.40
2017-07-31T11:12:52.706Z,33.50
2017-07-31T11:15:20.215Z,33.10
2017-07-31T11:17:47.753Z,33.10
2017-07-31T11:20:15.264Z,33.20
2017-07-31T11:22:42.802Z,33.10
2017-07-31T11:25:10.318Z,33.10
2017-07-31T11:27:37.869Z,33.20
2017-07-31T11:30:05.386Z,33.50
2017-07-31T11:32:33.689Z,34.10
2017-07-31T11:35:01.203Z,34.10
2017-07-31T11:37:29.518Z,34.50
2017-07-31T11:39:57.034Z,34.50
2017-07-31T11:42:25.321Z,34.00
2017-07-31T11:44:53.616Z,33.80
2017-07-31T11:47:21.196Z,33.80
2017-07-31T11:49:48.739Z,33.90
2017-07-31T11:52:16.249Z,33.80
2017-07-31T11:54:43.795Z,33.90
2017-07-31T11:57:11.308Z,34.10
2017-07-31T11:59:38.838Z,34.90
2017-07-31T12:02:07.121Z,35.40
2017-07-31T12:04:35.442Z,35.30
2017-07-31T12:07:02.986Z,35.30
2017-07-31T12:09:30.530Z,35.90
2017-07-31T12:11:58.036Z,36.10
2017-07-31T12:14:25.590Z,36.10
2017-07-31T12:16:53.105Z,35.90
2017-07-31T12:19:21.393Z,35.60
2017-07-31T12:21:48.942Z,35.60
2017-07-31T12:24:16.463Z,35.60
2017-07-31T12:26:44.001Z,35.00
2017-07-31T12:29:11.513Z,34.30
2017-07-31T12:31:39.800Z,34.00
2017-07-31T12:34:07.327Z,34.00
2017-07-31T12:36:34.857Z,34.00
2017-07-31T12:39:02.377Z,34.00
2017-07-31T12:41:29.918Z,33.70
2017-07-31T12:43:57.442Z,33.60
2017-07-31T12:46:24.954Z,33.50
2017-07-31T12:48:52.516Z,33.30
2017-07-31T12:51:20.056Z,33.20
2017-07-31T12:53:48.356Z,33.20
2017-07-31T12:56:15.855Z,33.20
2017-07-31T12:58:43.401Z,33.50
2017-07-31T13:01:10.913Z,33.10
2017-07-31T13:03:39.210Z,33.40
2017-07-31T13:06:06.721Z,33.40
2017-07-31T13:08:34.256Z,33.50
2017-07-31T13:11:01.767Z,33.50
2017-07-31T13:13:30.063Z,34.00
2017-07-31T13:15:57.574Z,33.90
2017-07-31T13:18:25.093Z,33.80
2017-07-31T13:20:52.655Z,34.40
2017-07-31T13:23:20.165Z,34.90
2017-07-31T13:25:48.472Z,34.40
2017-07-31T13:28:15.989Z,34.40
2017-07-31T13:30:43.519Z,34.60
2017-07-31T13:33:11.026Z,34.70
2017-07-31T13:35:38.616Z,34.70
2017-07-31T13:38:06.124Z,33.70
2017-07-31T13:40:33.699Z,33.00
2017-07-31T13:43:01.978Z,32.30
2017-07-31T13:45:30.249Z,32.00
2017-07-31T13:47:58.549Z,32.50
2017-07-31T13:50:26.172Z,32.40
2017-07-31T13:52:53.693Z,32.60
2017-07-31T13:55:21.200Z,32.60
2017-07-31T13:57:49.528Z,32.80
2017-07-31T14:00:17.049Z,32.70
2017-07-31T14:02:44.590Z,33.00
2017-07-31T14:05:12.108Z,33.40
2017-07-31T14:07:39.663Z,33.80
2017-07-31T14:10:07.182Z,34.00
2017-07-31T14:12:35.461Z,34.00
2017-07-31T14:15:02.997Z,34.00
2017-07-31T14:17:31.279Z,34.30
2017-07-31T14:19:59.581Z,34.10
2017-07-31T14:22:27.111Z,34.10
2017-07-31T14:24:54.641Z,33.80
2017-07-31T14:27:22.173Z,33.70
2017-07-31T14:29:49.702Z,33.40
2017-07-31T14:32:17.981Z,32.90
2017-07-31T14:34:45.520Z,32.90
2017-07-31T14:37:13.809Z,32.50
2017-07-31T14:39:42.136Z,32.50
2017-07-31T14:42:09.680Z,32.40
2017-07-31T14:44:37.206Z,32.90
2017-07-31T14:47:04.748Z,33.30
2017-07-31T14:49:32.266Z,34.10
2017-07-31T14:51:59.831Z,34.70
2017-07-31T14:54:27.333Z,35.20
2017-07-31T14:56:54.865Z,35.10
2017-07-31T14:59:22.387Z,35.10
2017-07-31T15:01:49.913Z,34.80
2017-07-31T15:04:18.194Z,34.20
2017-07-31T15:06:45.728Z,34.20
2017-07-31T15:09:13.233Z,33.70
2017-07-31T15:11:40.777Z,33.10
2017-07-31T15:14:08.308Z,32.00
2017-07-31T15:16:35.859Z,31.50
2017-07-31T15:19:03.373Z,31.30
2017-07-31T15:21:30.907Z,31.30
2017-07-31T15:23:58.448Z,31.50
2017-07-31T15:26:26.728Z,31.90
2017-07-31T15:28:55.048Z,32.30
2017-07-31T15:31:22.561Z,32.30
2017-07-31T15:33:50.865Z,34.10
2017-07-31T15:36:18.388Z,34.10
2017-07-31T15:38:45.926Z,34.80
2017-07-31T15:41:13.456Z,34.90
2017-07-31T15:43:40.995Z,34.60
2017-07-31T15:46:08.511Z,34.10
2017-07-31T15:48:36.056Z,34.10
2017-07-31T15:51:03.589Z,34.10
2017-07-31T15:53:31.114Z,34.10
2017-07-31T15:55:58.680Z,34.10
2017-07-31T15:58:26.969Z,34.10
2017-07-31T16:00:54.500Z,34.10
2017-07-31T16:03:22.018Z,33.80
2017-07-31T16:05:49.560Z,33.30
2017-07-31T16:08:17.070Z,32.90
2017-07-31T16:10:45.380Z,32.90
2017-07-31T16:13:12.961Z,32.90
2017-07-31T16:15:40.513Z,32.80
2017-07-31T16:18:08.124Z,32.60
2017-07-31T16:20:35.762Z,32.20
2017-07-31T16:23:03.327Z,32.00
2017-07-31T16:25:30.958Z,31.80
2017-07-31T16:27:58.567Z,31.60
2017-07-31T16:30:27.022Z,31.50
2017-07-31T16:32:54.569Z,31.50
2017-07-31T16:35:22.076Z,31.60
2017-07-31T16:37:50.349Z,31.00
2017-07-31T16:40:30.625Z,30.80
2017-07-31T16:43:09.070Z,30.80
2017-07-31T16:45:40.325Z,30.90
2017-07-31T16:48:19.749Z,30.80
2017-07-31T16:50:47.258Z,30.50
2017-07-31T16:53:15.536Z,30.30
2017-07-31T16:55:44.051Z,30.10
2017-07-31T16:58:11.577Z,30.10
2017-07-31T17:00:40.601Z,29.60
2017-07-31T17:03:08.112Z,29.60
2017-07-31T17:05:35.646Z,29.50
2017-07-31T17:08:06.211Z,29.50
2017-07-31T17:10:33.750Z,29.50
2017-07-31T17:13:01.274Z,29.40
2017-07-31T17:15:28.800Z,29.20
2017-07-31T17:17:57.093Z,29.00
2017-07-31T17:20:24.628Z,29.00
2017-07-31T17:22:52.911Z,29.10
2017-07-31T17:25:21.217Z,29.30
2017-07-31T17:27:48.783Z,29.30
2017-07-31T17:30:16.301Z,29.40
2017-07-31T17:32:44.617Z,29.20
2017-07-31T17:35:12.129Z,29.10
2017-07-31T17:37:40.440Z,29.00
2017-07-31T17:40:07.954Z,29.00
2017-07-31T17:42:35.488Z,28.90
2017-07-31T17:45:03.006Z,28.90
2017-07-31T17:47:30.546Z,28.90
2017-07-31T17:49:58.824Z,28.90
2017-07-31T17:52:27.132Z,28.80
2017-07-31T17:54:54.640Z,28.80
2017-07-31T17:57:22.185Z,28.80
2017-07-31T17:59:49.735Z,28.80
2017-07-31T18:02:17.254Z,28.80
2017-07-31T18:04:44.806Z,28.60
2017-07-31T18:07:12.320Z,28.40
2017-07-31T18:09:39.852Z,28.20
2017-07-31T18:12:07.409Z,28.10
2017-07-31T18:14:34.966Z,27.90
2017-07-31T18:17:02.491Z,27.70
2017-07-31T18:19:30.807Z,27.40
2017-07-31T18:21:58.338Z,27.40
2017-07-31T18:24:25.872Z,27.30
2017-07-31T18:26:54.178Z,26.90
2017-07-31T18:29:21.697Z,26.80
2017-07-31T18:31:49.245Z,26.70
2017-07-31T18:34:16.771Z,26.50
2017-07-31T18:36:44.294Z,26.40
2017-07-31T18:39:12.569Z,26.10
2017-07-31T18:41:42.026Z,26.00
2017-07-31T18:44:09.544Z,25.90
2017-07-31T18:46:37.064Z,25.80
2017-07-31T18:49:04.581Z,25.60
2017-07-31T18:51:32.118Z,25.50
2017-07-31T18:53:59.628Z,25.40
2017-07-31T18:56:27.160Z,25.40
2017-07-31T18:58:54.674Z,25.30
2017-07-31T19:01:22.964Z,25.10
2017-07-31T19:03:50.501Z,25.00
2017-07-31T19:06:18.014Z,25.00
2017-07-31T19:08:45.552Z,24.90
2017-07-31T19:11:13.281Z,24.70
2017-07-31T19:13:40.894Z,24.50
2017-07-31T19:16:08.399Z,24.30
2017-07-31T19:18:35.948Z,24.20
2017-07-31T19:21:03.461Z,24.00
2017-07-31T19:23:31.001Z,23.90
2017-07-31T19:25:58.529Z,23.80
2017-07-31T19:28:26.035Z,23.60
2017-07-31T19:30:53.569Z,23.50
2017-07-31T19:33:21.839Z,23.20
2017-07-31T19:35:50.128Z,23.10
2017-07-31T19:38:18.409Z,23.00
2017-07-31T19:40:45.953Z,23.00
2017-07-31T19:43:14.246Z,22.80
2017-07-31T19:45:41.776Z,22.70
2017-07-31T19:48:10.056Z,22.60
2017-07-31T19:50:38.363Z,22.50
2017-07-31T19:53:05.879Z,22.50
2017-07-31T19:55:33.413Z,22.40
2017-07-31T19:58:01.064Z,22.40
2017-07-31T20:00:28.578Z,22.30
2017-07-31T20:02:56.875Z,22.30
2017-07-31T20:05:24.409Z,22.20
2017-07-31T20:07:52.713Z,22.20
2017-07-31T20:10:20.242Z,22.20
2017-07-31T20:12:48.540Z,22.10
2017-07-31T20:15:16.057Z,22.10
2017-07-31T20:17:43.608Z,22.00
2017-07-31T20:20:11.121Z,21.90
2017-07-31T20:22:38.653Z,21.90
2017-07-31T20:25:06.941Z,21.70
2017-07-31T20:27:34.489Z,21.70
2017-07-31T20:30:02.781Z,21.60
2017-07-31T20:32:30.309Z,21.60
2017-07-31T20:34:57.860Z,21.60
2017-07-31T20:37:26.305Z,21.50
2017-07-31T20:39:53.835Z,21.40
2017-07-31T20:42:21.350Z,21.30
2017-07-31T20:44:48.877Z,21.30
2017-07-31T20:47:16.402Z,21.10
2017-07-31T20:49:44.708Z,21.00
2017-07-31T20:52:12.233Z,21.00
2017-07-31T20:54:40.551Z,20.90
2017-07-31T20:57:08.110Z,20.90
2017-07-31T20:59:35.649Z,20.80
2017-07-31T21:02:03.178Z,20.80
2017-07-31T21:04:30.708Z,20.80
2017-07-31T21:07:01.726Z,20.80
2017-07-31T21:09:29.276Z,20.80
2017-07-31T21:11:56.832Z,20.70
2017-07-31T21:14:24.354Z,20.70
2017-07-31T21:16:51.880Z,20.70
2017-07-31T21:19:19.402Z,20.70
2017-07-31T21:21:46.941Z,20.70
2017-07-31T21:24:15.225Z,20.60
2017-07-31T21:26:43.529Z,20.60
2017-07-31T21:29:11.049Z,20.60
2017-07-31T21:31:39.358Z,20.50
2017-07-31T21:34:06.881Z,20.50
2017-07-31T21:36:35.170Z,20.50
2017-07-31T21:39:03.482Z,20.50
2017-07-31T21:41:31.012Z,20.50
2017-07-31T21:43:58.550Z,20.50
2017-07-31T21:46:26.826Z,20.40
2017-07-31T21:48:54.360Z,20.40
2017-07-31T21:51:21.890Z,20.40
2017-07-31T21:53:49.465Z,20.30
2017-07-31T21:56:16.986Z,20.20
2017-07-31T21:58:44.538Z,20.10
2017-07-31T22:01:12.053Z,20.10
2017-07-31T22:03:39.602Z,20.10
2017-07-31T22:06:07.145Z,20.00
2017-07-31T22:08:34.669Z,19.90
2017-07-31T22:11:02.250Z,19.90
2017-07-31T22:13:30.741Z,19.80
2017-07-31T22:15:58.268Z,19.70
2017-07-31T22:18:25.789Z,19.70
2017-07-31T22:20:59.096Z,19.60
2017-07-31T22:23:26.609Z,19.70
2017-07-31T22:25:54.157Z,19.60
2017-07-31T22:28:21.733Z,19.60
2017-07-31T22:30:49.297Z,19.60
2017-07-31T22:33:16.836Z,19.60
2017-07-31T22:35:44.376Z,19.50
2017-07-31T22:38:11.905Z,19.50
2017-07-31T22:40:40.199Z,19.40
2017-07-31T22:43:08.506Z,19.40
2017-07-31T22:45:36.023Z,19.30
2017-07-31T22:48:04.338Z,19.30
2017-07-31T22:50:31.855Z,19.30
2017-07-31T22:52:59.394Z,19.20
2017-07-31T22:55:26.919Z,19.20
2017-07-31T22:57:54.449Z,19.10
2017-07-31T23:00:22.749Z,19.10
2017-07-31T23:02:50.263Z,19.10
2017-07-31T23:05:17.793Z,19.00
2017-07-31T23:07:45.301Z,19.00
2017-07-31T23:10:13.596Z,19.00
2017-07-31T23:12:41.129Z,19.00
2017-07-31T23:15:09.510Z,19.00
2017-07-31T23:17:37.795Z,19.10
2017-07-31T23:20:06.093Z,19.10
2017-07-31T23:22:33.616Z,19.10
2017-07-31T23:25:01.177Z,19.10
2017-07-31T23:27:28.686Z,19.10
2017-07-31T23:29:56.216Z,19.10
2017-07-31T23:32:23.748Z,19.10
2017-07-31T23:34:51.261Z,19.10
2017-07-31T23:37:18.801Z,19.10
2017-07-31T23:39:46.308Z,19.10
2017-07-31T23:42:13.852Z,19.10
2017-07-31T23:44:41.433Z,19.10
2017-07-31T23:47:08.995Z,19.10
2017-07-31T23:49:36.511Z,19.10
2017-07-31T23:52:04.061Z,19.10
2017-07-31T23:54:31.579Z,19.10
2017-07-31T23:56:59.115Z,19.10
2017-07-31T23:59:26.670Z,19.10
